Time;durP1;ratioP1;P1;durP2;ratioP2;P2;SDS_P1;SDS_P2;PMS_P1;PMS_P2;Temp;Humidity;BMP_temperature;BMP_pressure;BME280_temperature;BME280_humidity;BME280_pressure;Samples;Min_cycle;Max_cycle;Signal;HPM_P1;HPM_P2
2023/01/22 00:00:23;;;;;;;;;;;;;;;17.24;60.41;98071.25;2064387;28;20046;-85
2023/01/22 00:01:24;;;;;;;16.98;10.65;;;;;;;17.26;60.13;98085.28;2061824;28;20526;-84
2023/01/22 00:02:27;;;;;;;;;;;;;;;17.16;60.45;98083.88;2063318;28;20061;-84
2023/01/22 00:03:27;;;;;;;14.55;8.88;;;;;;;17.20;60.37;98082.41;2065557;28;19984;-85
2023/01/22 00:04:29;;;;;;;;;;;;;;;17.12;60.41;98084.47;2063541;28;20075;-83
2023/01/22 00:05:29;;;;;;;;;;;;;;;17.05;60.88;98078.28;2062917;28;19926;-84
2023/01/22 00:06:31;;;;;;;14.40;9.03;;;;;;;17.11;60.41;98078.28;2063103;28;19956;-85
2023/01/22 00:07:32;;;;;;;12.45;8.68;;;;;;;17.16;60.31;98077.66;2064400;28;20062;-83
2023/01/22 00:08:34;;;;;;;;;;;;;;;17.09;60.48;98082.22;2063907;28;20057;-84
2023/01/22 00:09:35;;;;;;;12.77;8.88;;;;;;;17.13;60.38;98081.59;2058084;28;19931;-86
2023/01/22 00:10:36;;;;;;;;;;;;;;;17.04;60.59;98073.97;2062781;28;20105;-84
2023/01/22 00:11:37;;;;;;;11.20;8.23;;;;;;;17.11;60.55;98072.94;2061654;28;19971;-84
2023/01/22 00:12:38;;;;;;;;;;;;;;;17.03;60.65;98078.50;2064396;28;20062;-86
2023/01/22 00:13:39;;;;;;;15.20;8.30;;;;;;;17.10;60.40;98079.31;2064081;28;20323;-84
2023/01/22 00:14:42;;;;;;;;;;;;;;;17.02;60.68;98076.03;2066551;28;20100;-87
2023/01/22 00:15:43;;;;;;;14.38;9.32;;;;;;;17.04;60.65;98073.97;2062261;28;20028;-85
2023/01/22 00:16:44;;;;;;;;;;;;;;;17.00;60.51;98076.25;2064275;28;20202;-84
2023/01/22 00:17:49;;;;;;;;;;;;;;;16.93;60.78;98078.09;2062319;28;19921;-84
2023/01/22 00:18:51;;;;;;;14.70;9.63;;;;;;;16.99;60.55;98079.94;2066140;28;20363;-84
2023/01/22 00:19:52;;;;;;;13.75;8.70;;;;;;;17.03;60.42;98075.00;2062545;28;20041;-84
2023/01/22 00:20:54;;;;;;;;;;;;;;;16.96;60.64;98097.25;2063800;28;20524;-86
2023/01/22 00:21:55;;;;;;;14.40;9.05;;;;;;;17.01;60.49;98083.22;2062530;28;19967;-85
2023/01/22 00:22:56;;;;;;;;;;;;;;;16.91;60.72;98089.03;2064327;28;20312;-84
2023/01/22 00:23:57;;;;;;;12.48;7.78;;;;;;;16.95;60.67;98084.06;2062141;28;19925;-83
2023/01/22 00:24:58;;;;;;;;;;;;;;;16.87;60.84;98087.75;2062248;28;20492;-83
2023/01/22 00:26:00;;;;;;;16.75;9.82;;;;;;;16.93;60.54;98092.28;2062942;28;19929;-84
2023/01/22 00:27:02;;;;;;;11.93;8.70;;;;;;;16.95;60.50;98078.72;2061875;28;20049;-85
2023/01/22 00:28:02;;;;;;;15.90;9.82;;;;;;;16.97;60.29;98082.00;2064010;28;20073;-86
2023/01/22 00:29:04;;;;;;;;;;;;;;;16.90;60.39;98097.25;2054793;28;20054;-85
2023/01/22 00:30:07;;;;;;;11.00;7.90;;;;;;;16.95;60.46;98092.09;2062805;28;19957;-85
2023/01/22 00:31:11;;;;;;;14.65;9.68;;;;;;;16.94;60.55;98093.16;2062457;28;20531;-84
2023/01/22 00:32:12;;;;;;;13.85;8.63;;;;;;;16.96;60.45;98085.69;2060766;28;20143;-84
2023/01/22 00:33:15;;;;;;;;;;;;;;;16.87;60.54;98092.31;2062822;28;20049;-84
2023/01/22 00:34:15;;;;;;;14.23;9.23;;;;;;;16.89;60.50;98092.94;2064420;28;19925;-83
2023/01/22 00:35:17;;;;;;;;;;;;;;;16.81;60.80;98087.78;2061296;28;20080;-83
2023/01/22 00:36:19;;;;;;;12.48;8.85;;;;;;;16.84;60.61;98087.38;2062163;28;20619;-86
2023/01/22 00:37:21;;;;;;;11.43;7.75;;;;;;;16.87;60.36;98086.94;2065696;28;20488;-83
2023/01/22 00:38:21;;;;;;;13.10;8.20;;;;;;;16.89;60.30;98096.44;2062561;28;20206;-84
2023/01/22 00:39:23;;;;;;;;;;;;;;;16.80;60.61;98094.13;2063665;28;20615;-83
2023/01/22 00:40:24;;;;;;;13.27;8.55;;;;;;;16.80;60.74;98086.09;2063160;28;20408;-85
2023/01/22 00:41:25;;;;;;;;;;;;;;;16.73;60.78;98100.28;2063080;28;20104;-83
2023/01/22 00:42:26;;;;;;;17.42;9.00;;;;;;;16.78;60.73;98093.53;2064160;28;20435;-84
2023/01/22 00:43:28;;;;;;;;;;;;;;;16.68;60.88;98094.72;2065113;28;20054;-87
2023/01/22 00:44:29;;;;;;;14.50;8.63;;;;;;;16.74;60.75;98099.28;2065334;28;19929;-85
2023/01/22 00:45:30;;;;;;;12.38;7.93;;;;;;;16.77;60.61;98095.41;2063364;28;20157;-84
2023/01/22 00:46:32;;;;;;;;;;;;;;;16.69;60.76;98099.06;2068504;28;20046;-84
2023/01/22 00:47:34;;;;;;;12.05;7.75;;;;;;;16.71;60.68;98098.84;2064866;28;20519;-85
2023/01/22 00:48:38;;;;;;;14.05;8.85;;;;;;;16.75;60.45;98090.22;2066238;28;20352;-84
2023/01/22 00:49:38;;;;;;;11.95;7.95;;;;;;;16.79;60.52;98096.00;2065791;28;20497;-84
2023/01/22 00:50:40;;;;;;;;;;;;;;;16.68;60.65;98101.94;2067523;28;20046;-83
2023/01/22 00:51:41;;;;;;;10.88;7.50;;;;;;;16.68;60.74;98102.75;2067470;28;19930;-84
2023/01/22 00:52:42;;;;;;;;;;;;;;;16.59;60.95;98100.50;2069710;28;20057;-84
2023/01/22 00:53:43;;;;;;;11.73;8.05;;;;;;;16.60;61.04;98108.28;2066722;28;20474;-83
2023/01/22 00:54:45;;;;;;;;;;;;;;;16.54;61.08;98106.44;2068648;28;20046;-84
2023/01/22 00:55:53;;;;;;;14.90;8.35;;;;;;;16.60;60.86;98108.28;2068023;28;19933;-84
2023/01/22 00:56:55;;;;;;;13.70;7.40;;;;;;;16.62;60.76;98094.72;2067378;28;20091;-85
2023/01/22 00:57:56;;;;;;;12.38;8.10;;;;;;;16.65;60.72;98099.66;2067880;28;20047;-84
2023/01/22 00:58:57;;;;;;;;;;;;;;;16.56;60.83;98106.25;2069652;28;20041;-83
2023/01/22 00:59:58;;;;;;;13.77;8.30;;;;;;;16.57;60.76;98106.03;2068771;28;20223;-84
2023/01/22 01:01:01;;;;;;;;;;;;;;;16.49;60.95;98107.06;2068985;28;20107;-84
2023/01/22 01:02:01;;;;;;;12.65;8.27;;;;;;;16.53;60.79;98102.13;2067628;28;19948;-85
2023/01/22 01:04:23;;;;;;;13.13;7.93;;;;;;;16.47;61.01;98095.72;2067454;28;19925;-84
2023/01/22 01:05:24;;;;;;;12.80;7.93;;;;;;;16.53;60.76;98092.22;2067961;28;20531;-84
2023/01/22 01:06:26;;;;;;;;;;;;;;;16.44;61.03;98095.31;2067491;28;20141;-84
2023/01/22 01:07:26;;;;;;;;;;;;;;;16.36;61.20;98103.53;2069315;28;19925;-85
2023/01/22 01:08:30;;;;;;;11.83;7.60;;;;;;;16.41;61.10;98098.38;2067703;28;19976;-84
2023/01/22 01:09:31;;;;;;;12.35;8.07;;;;;;;16.44;60.97;98095.31;2067310;28;20564;-84
2023/01/22 01:10:32;;;;;;;;;;;;;;;16.39;60.92;98103.13;2070889;28;20057;-84
2023/01/22 01:11:33;;;;;;;11.40;7.30;;;;;;;16.40;61.04;98104.75;2067018;28;19926;-84
2023/01/22 01:12:35;;;;;;;;;;;;;;;16.35;61.21;98107.22;2067979;28;20472;-83
2023/01/22 01:13:38;;;;;;;11.30;6.82;;;;;;;16.40;61.23;98107.44;2066957;28;19925;-84
2023/01/22 01:14:40;;;;;;;15.48;8.85;;;;;;;16.40;60.99;98102.09;2067672;28;20069;-83
2023/01/22 01:15:42;;;;;;;14.50;8.70;;;;;;;16.41;60.86;98093.00;2067474;28;20129;-84
2023/01/22 01:16:43;;;;;;;12.77;7.93;;;;;;;16.39;60.88;98101.25;2068610;28;20406;-83
2023/01/22 01:17:45;;;;;;;12.63;7.55;;;;;;;16.44;60.70;98104.16;2069404;28;20091;-84
2023/01/22 01:18:47;;;;;;;13.13;7.82;;;;;;;16.43;60.71;98104.34;2068610;28;20149;-83
2023/01/22 01:19:50;;;;;;;11.77;7.35;;;;;;;16.40;60.78;98102.09;2064905;28;20048;-84
2023/01/22 01:20:54;;;;;;;13.30;8.52;;;;;;;16.43;60.72;98099.00;2067954;28;20160;-84
2023/01/22 01:21:55;;;;;;;12.05;7.45;;;;;;;16.42;60.72;98110.75;2067278;28;20069;-84
2023/01/22 01:22:56;;;;;;;;;;;;;;;16.31;60.99;98107.63;2065520;28;20461;-84
2023/01/22 01:23:59;;;;;;;11.40;6.82;;;;;;;16.30;61.04;98105.97;2064331;28;19930;-83
2023/01/22 01:24:59;;;;;;;12.48;7.15;;;;;;;16.31;61.01;98109.47;2064304;28;20095;-84
2023/01/22 01:26:04;;;;;;;;;;;;;;;16.22;61.10;98100.81;2064692;28;20120;-84
2023/01/22 01:27:05;;;;;;;11.07;7.57;;;;;;;16.23;61.10;98102.44;2063668;28;19976;-86
2023/01/22 01:28:06;;;;;;;;;;;;;;;16.14;61.41;98109.00;2066536;28;20046;-84
2023/01/22 01:29:10;;;;;;;11.23;7.22;;;;;;;16.18;61.33;98110.25;2064547;28;19975;-85
2023/01/22 01:30:12;;;;;;;9.20;6.55;;;;;;;16.23;61.04;98107.78;2063597;28;20070;-84
2023/01/22 01:31:15;;;;;;;11.90;8.02;;;;;;;16.18;61.26;98099.53;2057717;28;20424;-84
2023/01/22 01:32:17;;;;;;;12.55;7.53;;;;;;;16.24;61.13;98104.13;2062853;28;20174;-85
2023/01/22 01:33:18;;;;;;;10.93;7.45;;;;;;;16.21;60.98;98101.81;2064001;28;20106;-85
2023/01/22 01:34:19;;;;;;;;;;;;;;;16.13;61.28;98107.38;2068777;28;20043;-83
2023/01/22 01:35:22;;;;;;;11.52;6.82;;;;;;;16.14;61.26;98102.84;2063962;28;19989;-83
2023/01/22 01:36:25;;;;;;;12.68;7.55;;;;;;;16.17;61.20;98103.25;2064522;28;20042;-84
2023/01/22 01:37:25;;;;;;;12.45;7.05;;;;;;;16.21;60.76;98099.13;2062396;28;20127;-85
2023/01/22 01:38:27;;;;;;;;;;;;;;;16.11;61.22;98109.41;2064470;28;20148;-83
2023/01/22 01:39:28;;;;;;;13.57;8.05;;;;;;;16.10;61.17;98107.75;2064790;28;19979;-83
2023/01/22 01:40:29;;;;;;;;;;;;;;;16.02;61.40;98100.75;2064463;28;20128;-83
2023/01/22 01:41:30;;;;;;;8.55;6.75;;;;;;;16.03;61.32;98105.06;2064313;28;20008;-84
2023/01/22 01:42:34;;;;;;;;;;;;;;;15.94;61.61;98108.94;2065467;28;20060;-84
2023/01/22 01:43:34;;;;;;;12.60;7.60;;;;;;;16.00;61.54;98108.13;2064933;28;19921;-84
2023/01/22 01:44:37;;;;;;;;;;;;;;;15.93;61.64;98106.44;2064002;28;20053;-86
2023/01/22 01:45:38;;;;;;;9.93;7.10;;;;;;;16.00;61.44;98104.63;2063387;28;20016;-84
2023/01/22 01:46:44;;;;;;;11.73;7.32;;;;;;;16.03;61.21;98110.41;2061657;28;20064;-83
2023/01/22 01:47:46;;;;;;;11.00;7.88;;;;;;;16.07;61.24;98116.16;2063415;28;20111;-85
2023/01/22 01:48:51;;;;;;;11.35;7.35;;;;;;;16.07;61.32;98114.34;2065282;28;20038;-84
2023/01/22 01:49:52;;;;;;;15.35;7.88;;;;;;;16.05;61.11;98105.69;2061685;28;20468;-83
2023/01/22 01:51:01;;;;;;;11.60;7.18;;;;;;;16.06;61.13;98111.84;2063238;28;20053;-84
2023/01/22 01:52:08;;;;;;;11.50;7.65;;;;;;;16.02;61.24;98110.63;2065344;28;20101;-84
2023/01/22 01:53:08;;;;;;;11.25;7.47;;;;;;;16.02;61.30;98110.63;2064483;28;20694;-83
2023/01/22 01:54:10;;;;;;;;;;;;;;;15.94;61.48;98113.47;2064282;28;20081;-83
2023/01/22 01:55:12;;;;;;;10.25;6.95;;;;;;;15.95;61.46;98107.91;2062477;28;19921;-84
2023/01/22 01:56:20;;;;;;;11.77;7.03;;;;;;;15.96;61.18;98114.06;2062747;28;20049;-84
2023/01/22 01:57:25;;;;;;;11.02;6.85;;;;;;;15.98;61.26;98114.69;2063904;28;20176;-85
2023/01/22 01:58:32;;;;;;;9.43;6.07;;;;;;;15.97;61.19;98113.06;2064061;28;20059;-83
2023/01/22 01:59:34;;;;;;;12.07;6.72;;;;;;;15.97;61.31;98121.09;2064002;28;20138;-86
2023/01/22 02:00:38;;;;;;;9.98;6.60;;;;;;;15.94;61.38;98119.63;2064538;28;20144;-85
2023/01/22 02:01:39;;;;;;;12.88;7.10;;;;;;;15.95;61.48;98115.91;2062628;28;20099;-84
2023/01/22 02:02:41;;;;;;;;;;;;;;;15.81;61.48;98120.38;2064488;28;20623;-84
2023/01/22 02:03:42;;;;;;;;;;;;;;;15.73;61.82;98120.53;2064732;28;19929;-84
2023/01/22 02:04:44;;;;;;;;;;;;;;;15.67;62.06;98129.31;2063827;28;19930;-83
2023/01/22 02:05:44;;;;;;;;;;;;;;;15.62;62.15;98121.06;2065567;28;19925;-85
2023/01/22 02:06:47;;;;;;;10.93;6.67;;;;;;;15.69;61.89;98126.50;2060895;28;20479;-83
2023/01/22 02:07:48;;;;;;;9.70;6.25;;;;;;;15.77;61.62;98119.13;2063412;28;20466;-85
2023/01/22 02:08:50;;;;;;;;;;;;;;;15.70;61.88;98128.97;2063308;28;20133;-84
2023/01/22 02:09:51;;;;;;;7.82;6.82;;;;;;;15.74;61.86;98126.72;2063225;28;20016;-84
2023/01/22 02:10:53;;;;;;;;;;;;;;;15.67;61.92;98129.31;2064131;28;20058;-84
2023/01/22 02:11:54;;;;;;;10.32;7.25;;;;;;;15.68;61.88;98120.31;2063478;28;20008;-85
2023/01/22 02:12:57;;;;;;;;;;;;;;;15.62;62.07;98126.41;2062290;28;21180;-83
2023/01/22 02:14:01;;;;;;;11.52;6.03;;;;;;;15.65;61.89;98120.66;2064268;28;20455;-83
2023/01/22 02:15:05;;;;;;;9.73;6.82;;;;;;;15.70;61.78;98128.13;2062729;28;20042;-83
2023/01/22 02:16:08;;;;;;;11.68;7.35;;;;;;;15.75;61.51;98126.53;2063097;28;20080;-84
2023/01/22 02:17:13;;;;;;;11.98;6.57;;;;;;;15.76;61.63;98122.81;2063877;28;20424;-84
2023/01/22 02:18:14;;;;;;;9.50;6.57;;;;;;;15.76;61.43;98122.81;2062896;28;20054;-85
2023/01/22 02:19:15;;;;;;;;;;;;;;;15.63;61.84;98128.06;2062298;28;20108;-84
2023/01/22 02:20:16;;;;;;;;;;;;;;;15.53;62.09;98132.94;2063402;28;19937;-84
2023/01/22 02:21:31;;;;;;;10.98;6.88;;;;;;;15.59;61.96;98130.28;2063208;28;19955;-84
2023/01/22 02:22:37;;;;;;;9.95;6.40;;;;;;;15.66;61.74;98133.03;2062599;28;20049;-84
2023/01/22 02:23:38;;;;;;;10.30;7.07;;;;;;;15.64;61.77;98135.06;2063334;28;21172;-83
2023/01/22 02:24:39;;;;;;;;;;;;;;;15.58;61.92;98135.84;2063569;28;20092;-83
2023/01/22 02:25:40;;;;;;;11.43;7.70;;;;;;;15.63;61.67;98128.06;2064420;28;19929;-84
2023/01/22 02:26:42;;;;;;;;;;;;;;;15.54;61.96;98138.06;2065863;28;20800;-83
2023/01/22 02:27:43;;;;;;;8.93;5.63;;;;;;;15.58;61.97;98135.84;2062136;28;20499;-83
2023/01/22 02:28:44;;;;;;;;;;;;;;;15.48;62.02;98133.53;2062674;28;20042;-84
2023/01/22 02:29:45;;;;;;;9.23;5.97;;;;;;;15.55;61.98;98136.25;2064386;28;19975;-83
2023/01/22 02:30:46;;;;;;;;;;;;;;;15.47;62.17;98133.72;2062424;28;20043;-84
2023/01/22 02:31:47;;;;;;;10.90;6.47;;;;;;;15.53;61.79;98132.94;2063449;28;20016;-85
2023/01/22 02:32:49;;;;;;;;;;;;;;;15.43;62.26;98141.28;2063642;28;20061;-84
2023/01/22 02:33:49;;;;;;;8.68;6.13;;;;;;;15.46;62.14;98129.38;2062744;28;19925;-84
2023/01/22 02:34:51;;;;;;;;;;;;;;;15.39;62.34;98143.53;2062984;28;20050;-84
2023/01/22 02:35:52;;;;;;;8.50;5.95;;;;;;;15.46;62.25;98132.06;2062435;28;20027;-83
2023/01/22 02:36:54;;;;;;;;;;;;;;;15.41;62.13;98143.34;2063089;28;20080;-85
2023/01/22 02:37:55;;;;;;;10.35;6.00;;;;;;;15.42;62.10;98132.44;2061182;28;19968;-85
2023/01/22 02:38:57;;;;;;;;;;;;;;;15.36;62.22;98138.59;2062497;28;20515;-85
2023/01/22 02:39:57;;;;;;;8.40;5.55;;;;;;;15.42;62.10;98136.97;2062406;28;19925;-85
2023/01/22 02:40:59;;;;;;;;;;;;;;;15.37;62.26;98139.41;2065269;28;20089;-85
2023/01/22 02:42:00;;;;;;;8.32;5.22;;;;;;;15.38;62.20;98135.72;2066482;28;19925;-86
2023/01/22 02:43:02;;;;;;;9.55;6.15;;;;;;;15.44;61.70;98134.13;2062882;28;20104;-84
2023/01/22 02:44:03;;;;;;;10.07;5.97;;;;;;;15.48;61.91;98132.69;2063302;28;20058;-84
2023/01/22 02:45:05;;;;;;;;;;;;;;;15.37;62.12;98134.88;2064711;28;20484;-84
2023/01/22 02:46:06;;;;;;;10.05;6.88;;;;;;;15.40;62.07;98134.47;2062973;28;19930;-83
2023/01/22 02:47:08;;;;;;;;;;;;;;;15.32;62.18;98132.00;2064181;28;20118;-83
2023/01/22 02:48:08;;;;;;;8.77;5.50;;;;;;;15.33;62.19;98133.63;2063425;28;19929;-83
2023/01/22 02:49:10;;;;;;;;;;;;;;;15.27;62.34;98139.75;2065984;28;20070;-84
2023/01/22 02:50:11;;;;;;;9.57;5.90;;;;;;;15.33;62.13;98138.97;2066231;28;20513;-84
2023/01/22 02:51:12;;;;;;;;;;;;;;;15.26;62.35;98140.75;2067819;28;20042;-83
2023/01/22 02:52:15;;;;;;;8.30;5.78;;;;;;;15.27;62.19;98137.09;2066752;28;19966;-84
2023/01/22 02:53:16;;;;;;;10.90;6.85;;;;;;;15.33;62.31;98136.31;2067140;28;20042;-84
2023/01/22 02:54:19;;;;;;;7.50;5.55;;;;;;;15.35;62.19;98130.75;2068484;28;20045;-84
2023/01/22 02:55:21;;;;;;;8.30;5.60;;;;;;;15.37;61.80;98129.53;2067277;28;20057;-83
2023/01/22 02:56:22;;;;;;;7.05;5.43;;;;;;;15.40;61.86;98122.97;2067433;28;20076;-84
2023/01/22 02:57:24;;;;;;;9.55;6.20;;;;;;;15.39;61.86;98132.84;2068123;28;20390;-84
2023/01/22 02:58:25;;;;;;;9.32;5.57;;;;;;;15.38;61.91;98133.88;2066326;28;20663;-84
2023/01/22 02:59:26;;;;;;;;;;;;;;;15.26;62.03;98143.44;2067809;28;20049;-84
2023/01/22 03:00:27;;;;;;;;;;;;;;;15.15;62.45;98131.41;2067223;28;20020;-84
2023/01/22 03:01:28;;;;;;;9.53;6.43;;;;;;;15.20;62.36;98136.19;2068327;28;19917;-83
2023/01/22 03:02:29;;;;;;;9.48;6.10;;;;;;;15.28;61.95;98137.91;2066757;28;20107;-84
2023/01/22 03:03:31;;;;;;;;;;;;;;;15.16;62.49;98132.28;2068438;28;20567;-84
2023/01/22 03:04:31;;;;;;;6.85;4.80;;;;;;;15.22;62.36;98133.34;2067647;28;20624;-85
2023/01/22 03:05:33;;;;;;;;;;;;;;;15.14;62.46;98129.78;2068143;28;20120;-84
2023/01/22 03:06:34;;;;;;;7.53;6.00;;;;;;;15.19;62.31;98126.53;2067494;28;20199;-83
2023/01/22 03:07:43;;;;;;;;;;;;;;;15.13;62.30;98133.47;2068182;28;20050;-84
2023/01/22 03:08:44;;;;;;;9.32;5.70;;;;;;;15.16;62.27;98129.59;2067192;28;20008;-84
2023/01/22 03:09:45;;;;;;;;;;;;;;;15.12;62.45;98131.00;2068751;28;20033;-83
2023/01/22 03:10:46;;;;;;;8.55;5.90;;;;;;;15.16;62.48;98127.75;2066333;28;19925;-85
2023/01/22 03:11:47;;;;;;;;;;;;;;;15.10;62.51;98133.03;2067783;28;20057;-84
2023/01/22 03:22:05;;;;;;;8.57;5.65;;;;;;;15.12;62.19;98123.78;2066772;28;20106;-83
2023/01/22 03:23:07;;;;;;;7.97;5.78;;;;;;;15.21;61.97;98129.84;2068788;28;21923;-84
2023/01/22 03:24:09;;;;;;;7.80;4.95;;;;;;;15.16;62.08;98126.94;2062970;28;20137;-85
2023/01/22 03:25:10;;;;;;;9.80;5.82;;;;;;;15.13;62.03;98122.78;2063224;28;20890;-84
2023/01/22 03:26:11;;;;;;;;;;;;;;;15.04;62.22;98123.13;2062664;28;20065;-86
2023/01/22 03:27:12;;;;;;;7.68;5.82;;;;;;;15.02;62.28;98112.63;2062954;28;20385;-84
2023/01/22 03:28:18;;;;;;;;;;;;;;;15.00;62.43;98127.19;2064756;28;20050;-84
2023/01/22 03:29:18;;;;;;;8.48;5.57;;;;;;;15.03;62.28;98118.81;2063504;28;19925;-84
2023/01/22 03:30:20;;;;;;;;;;;;;;;14.95;62.53;98120.56;2063378;28;20725;-83
2023/01/22 03:31:21;;;;;;;9.63;5.88;;;;;;;14.98;62.45;98124.72;2061630;28;19933;-83
2023/01/22 03:32:22;;;;;;;;;;;;;;;14.93;62.64;98124.44;2063050;28;20538;-84
2023/01/22 03:33:23;;;;;;;7.35;5.30;;;;;;;14.97;62.52;98129.22;2060781;28;19930;-85
2023/01/22 03:34:25;;;;;;;;;;;;;;;14.91;62.60;98131.84;2067616;28;20046;-84
2023/01/22 03:35:26;;;;;;;9.07;5.95;;;;;;;14.94;62.43;98129.63;2066251;28;19956;-84
2023/01/22 03:36:28;;;;;;;;;;;;;;;14.88;62.71;98125.06;2066900;28;20054;-84
2023/01/22 03:37:28;;;;;;;8.30;4.82;;;;;;;14.93;62.46;98117.28;2067278;28;19921;-84
2023/01/22 03:38:31;;;;;;;;;;;;;;;14.90;62.69;98122.16;2066807;28;20108;-86
2023/01/22 03:39:32;;;;;;;7.55;5.07;;;;;;;14.93;62.49;98122.63;2062243;28;20638;-84
2023/01/22 03:40:34;;;;;;;;;;;;;;;14.90;62.68;98120.31;2063162;28;20060;-83
2023/01/22 03:41:35;;;;;;;;;;;;;;;14.81;62.84;98121.47;2063915;28;20296;-84
2023/01/22 03:42:36;;;;;;;8.35;5.07;;;;;;;14.89;62.82;98125.88;2062969;28;19996;-83
2023/01/22 03:43:37;;;;;;;7.82;5.53;;;;;;;14.95;62.37;98123.25;2063389;28;20660;-84
2023/01/22 03:44:39;;;;;;;;;;;;;;;14.88;62.54;98122.38;2063314;28;20097;-84
2023/01/22 03:45:39;;;;;;;7.82;5.47;;;;;;;14.91;62.43;98126.50;2061932;28;20476;-83
2023/01/22 03:46:41;;;;;;;;;;;;;;;14.81;62.73;98126.00;2063109;28;20057;-83
2023/01/22 03:47:42;;;;;;;8.05;4.90;;;;;;;14.89;62.41;98123.19;2063523;28;19929;-85
2023/01/22 03:48:44;;;;;;;;;;;;;;;14.83;62.78;98123.97;2062143;28;20042;-83
2023/01/22 03:49:44;;;;;;;7.32;4.95;;;;;;;14.89;62.36;98134.69;2063637;28;22373;-85
2023/01/22 03:50:46;;;;;;;;;;;;;;;14.82;62.73;98125.81;2063131;28;20096;-82
2023/01/22 03:51:48;;;;;;;9.23;4.90;;;;;;;14.87;62.54;98126.03;2061992;28;19929;-84
2023/01/22 03:52:48;;;;;;;9.93;5.53;;;;;;;14.90;62.48;98127.50;2063079;28;20042;-84
2023/01/22 03:53:51;;;;;;;;;;;;;;;14.83;62.56;98132.81;2066618;28;20096;-85
2023/01/22 03:54:52;;;;;;;9.25;5.38;;;;;;;14.84;62.41;98131.78;2062284;28;19926;-85
2023/01/22 03:55:57;;;;;;;;;;;;;;;14.82;62.58;98130.31;2063880;28;20046;-83
2023/01/22 03:56:58;;;;;;;6.57;4.43;;;;;;;14.83;62.64;98131.97;2062347;28;19925;-84
2023/01/22 03:57:59;;;;;;;;;;;;;;;14.77;62.77;98138.91;2063566;28;20130;-83
2023/01/22 03:59:00;;;;;;;9.40;5.60;;;;;;;14.79;62.54;98131.50;2062543;28;20323;-84
2023/01/22 04:00:02;;;;;;;;;;;;;;;14.73;63.02;98143.78;2064517;28;20050;-84
2023/01/22 04:01:05;;;;;;;6.15;4.78;;;;;;;14.80;62.71;98135.03;2061463;28;20551;-84
2023/01/22 04:02:07;;;;;;;6.88;5.63;;;;;;;14.82;62.50;98136.50;2062599;28;20057;-84
2023/01/22 04:03:07;;;;;;;6.78;5.13;;;;;;;14.85;62.38;98130.78;2061679;28;20107;-85
2023/01/22 04:04:09;;;;;;;;;;;;;;;14.78;62.64;98137.06;2063578;28;20112;-84
2023/01/22 04:05:09;;;;;;;6.38;4.22;;;;;;;14.82;62.55;98133.84;2061022;28;19929;-84
2023/01/22 04:06:12;;;;;;;;;;;;;;;14.74;62.71;98139.28;2062997;28;20113;-84
2023/01/22 04:07:12;;;;;;;6.85;4.63;;;;;;;14.76;62.52;98131.91;2065376;28;19978;-83
2023/01/22 04:08:14;;;;;;;;;;;;;;;14.71;62.75;98140.50;2060164;28;20727;-83
2023/01/22 04:09:16;;;;;;;8.05;5.03;;;;;;;14.76;62.53;98142.59;2063981;28;19929;-83
2023/01/22 04:10:18;;;;;;;7.90;5.38;;;;;;;14.81;62.52;98136.69;2061765;28;20095;-83
2023/01/22 04:11:19;;;;;;;6.25;4.30;;;;;;;14.83;62.42;98142.66;2063147;28;20057;-83
2023/01/22 04:12:21;;;;;;;7.22;5.15;;;;;;;14.84;62.27;98133.63;2064409;28;20057;-84
2023/01/22 04:13:22;;;;;;;7.78;6.15;;;;;;;14.86;62.16;98143.09;2061053;28;20072;-85
2023/01/22 04:14:23;;;;;;;;;;;;;;;14.72;62.53;98144.00;2065954;28;20053;-85
2023/01/22 04:15:24;;;;;;;8.13;5.20;;;;;;;14.75;62.49;98138.25;2060976;28;19955;-84
2023/01/22 04:16:25;;;;;;;;;;;;;;;14.67;62.89;98143.72;2062041;28;20042;-85
2023/01/22 04:17:26;;;;;;;8.68;5.43;;;;;;;14.71;62.75;98153.03;2062372;28;19925;-86
2023/01/22 04:18:28;;;;;;;;;;;;;;;14.65;62.89;98148.41;2064044;28;20046;-83
2023/01/22 04:19:28;;;;;;;7.18;4.60;;;;;;;14.69;62.62;98153.19;2060573;28;20024;-84
2023/01/22 04:20:30;;;;;;;;;;;;;;;14.63;62.92;98153.16;2064178;28;20409;-84
2023/01/22 04:21:30;;;;;;;6.45;4.70;;;;;;;14.66;62.62;98152.75;2062159;28;20023;-84
2023/01/22 04:22:32;;;;;;;;;;;;;;;14.60;62.95;98158.84;2063111;28;20507;-84
2023/01/22 04:23:33;;;;;;;6.50;4.85;;;;;;;14.64;62.82;98157.47;2061899;28;19929;-83
2023/01/22 04:24:36;;;;;;;;;;;;;;;14.60;62.84;98161.50;2064092;28;20559;-84
2023/01/22 04:25:37;;;;;;;7.10;5.05;;;;;;;14.65;62.69;98159.09;2062955;28;19929;-84
2023/01/22 04:26:38;;;;;;;;;;;;;;;14.56;62.90;98165.59;2064305;28;20114;-83
2023/01/22 04:27:39;;;;;;;6.35;4.47;;;;;;;14.59;62.92;98157.19;2064907;28;19980;-83
2023/01/22 04:28:40;;;;;;;;;;;;;;;14.56;63.06;98169.06;2063042;28;20651;-82
2023/01/22 04:29:41;;;;;;;5.28;4.13;;;;;;;14.60;62.80;98161.50;2063315;28;19921;-85
2023/01/22 04:30:44;;;;;;;;;;;;;;;14.57;62.81;98167.22;2064940;28;20507;-84
2023/01/22 04:31:44;;;;;;;8.23;4.45;;;;;;;14.61;62.40;98165.84;2062401;28;19990;-84
2023/01/22 04:32:46;;;;;;;;;;;;;;;14.56;62.87;98163.72;2058590;28;20046;-83
2023/01/22 04:33:46;;;;;;;8.32;4.60;;;;;;;14.58;62.81;98161.72;2061443;28;19956;-84
2023/01/22 04:34:48;;;;;;;;;;;;;;;14.53;62.82;98172.94;2062864;28;20412;-84
2023/01/22 04:35:49;;;;;;;8.23;4.60;;;;;;;14.60;62.58;98166.84;2060551;28;20615;-84
2023/01/22 04:36:51;;;;;;;7.47;4.75;;;;;;;14.70;62.36;98172.72;2061790;28;20543;-84
2023/01/22 04:37:52;;;;;;;8.23;4.70;;;;;;;14.74;62.35;98172.16;2063334;28;20066;-83
2023/01/22 04:38:53;;;;;;;;;;;;;;;14.76;62.14;98177.28;2062026;28;20114;-85
2023/01/22 04:39:55;;;;;;;6.47;4.40;;;;;;;14.84;62.02;98171.81;2062114;28;19926;-84
2023/01/22 04:40:57;;;;;;;7.75;4.78;;;;;;;14.93;61.75;98164.50;2064745;28;20041;-83
2023/01/22 04:41:58;;;;;;;5.25;3.80;;;;;;;14.93;61.84;98165.34;2061458;28;20137;-84
2023/01/22 04:43:00;;;;;;;;;;;;;;;14.94;62.04;98164.34;2063529;28;20954;-83
2023/01/22 04:44:01;;;;;;;6.75;5.03;;;;;;;15.01;61.83;98155.53;2065198;28;20016;-84
2023/01/22 04:45:03;;;;;;;;;;;;;;;15.02;62.11;98162.56;2065041;28;20049;-85
2023/01/22 04:46:03;;;;;;;6.20;4.28;;;;;;;15.08;61.83;98159.94;2064185;28;19925;-83
2023/01/22 04:47:05;;;;;;;;;;;;;;;15.12;61.87;98169.22;2062314;28;20690;-84
2023/01/22 04:48:07;;;;;;;5.97;3.78;;;;;;;15.21;61.81;98167.25;2062473;28;19930;-84
2023/01/22 04:49:09;;;;;;;5.85;4.20;;;;;;;15.29;61.75;98168.94;2066350;28;20332;-84
2023/01/22 04:50:14;;;;;;;6.50;4.47;;;;;;;15.37;61.49;98168.78;2067721;28;20041;-83
2023/01/22 04:51:16;;;;;;;6.07;4.25;;;;;;;15.38;61.57;98173.13;2065666;28;20609;-83
2023/01/22 04:52:17;;;;;;;7.43;4.30;;;;;;;15.45;61.50;98168.66;2067863;28;20042;-84
2023/01/22 04:53:18;;;;;;;;;;;;;;;15.38;61.74;98163.28;2066810;28;20077;-84
2023/01/22 04:54:19;;;;;;;;;;;;;;;15.39;61.84;98166.75;2068111;28;19971;-84
2023/01/22 04:55:23;;;;;;;6.43;3.27;;;;;;;15.42;61.83;98159.19;2068148;28;19976;-85
2023/01/22 04:56:24;;;;;;;6.65;3.90;;;;;;;15.50;61.80;98162.72;2066735;28;20407;-84
2023/01/22 04:57:25;;;;;;;;;;;;;;;15.50;61.73;98165.41;2067542;28;20045;-85
2023/01/22 04:58:26;;;;;;;5.75;3.65;;;;;;;15.56;61.62;98152.06;2065687;28;19930;-84
2023/01/22 04:59:27;;;;;;;;;;;;;;;15.56;61.69;98161.94;2067398;28;20045;-83
2023/01/22 05:00:30;;;;;;;6.78;3.67;;;;;;;15.63;61.63;98157.47;2055819;28;19921;-84
2023/01/22 05:01:31;;;;;;;5.57;3.75;;;;;;;15.65;61.48;98152.75;2057872;28;21268;-84
2023/01/22 05:02:32;;;;;;;6.88;4.70;;;;;;;15.71;61.51;98149.34;2059097;28;20046;-83
2023/01/22 05:03:33;;;;;;;;;;;;;;;15.71;61.49;98162.72;2066158;28;20421;-84
2023/01/22 05:04:34;;;;;;;6.50;4.88;;;;;;;15.75;61.51;98161.28;2065847;28;19967;-83
2023/01/22 05:05:36;;;;;;;;;;;;;;;15.72;61.39;98164.34;2067836;28;20140;-83
2023/01/22 05:06:36;;;;;;;4.72;3.63;;;;;;;15.77;61.45;98161.09;2065937;28;20544;-84
2023/01/22 05:07:38;;;;;;;;;;;;;;;15.78;61.46;98168.91;2067221;28;20058;-84
2023/01/22 05:08:38;;;;;;;8.43;5.22;;;;;;;15.82;61.41;98164.84;2066033;28;19937;-83
2023/01/22 05:09:40;;;;;;;;;;;;;;;15.85;61.40;98168.94;2067066;28;20054;-85
2023/01/22 05:10:42;;;;;;;5.07;3.55;;;;;;;15.91;61.10;98164.66;2066099;28;19930;-83